sensor_id;sensor_type;location;lat;lon;timestamp;P1;durP1;ratioP1;P2;durP2;ratioP2
38851;SDS011;24605;50.092;9.182;2022-12-16T00:01:05;16.27;;;6.93;;
38851;SDS011;24605;50.092;9.182;2022-12-16T00:03:33;19.33;;;7.40;;
38851;SDS011;24605;50.092;9.182;2022-12-16T00:05:59;18.80;;;7.68;;
38851;SDS011;24605;50.092;9.182;2022-12-16T00:08:28;18.30;;;7.18;;
38851;SDS011;24605;50.092;9.182;2022-12-16T00:10:57;16.52;;;7.20;;
38851;SDS011;24605;50.092;9.182;2022-12-16T00:13:23;16.15;;;7.15;;
38851;SDS011;24605;50.092;9.182;2022-12-16T00:15:50;19.52;;;7.80;;
38851;SDS011;24605;50.092;9.182;2022-12-16T00:18:18;15.90;;;7.47;;
38851;SDS011;24605;50.092;9.182;2022-12-16T00:20:45;18.58;;;7.90;;
38851;SDS011;24605;50.092;9.182;2022-12-16T00:23:11;18.08;;;8.00;;
38851;SDS011;24605;50.092;9.182;2022-12-16T00:25:39;17.65;;;8.20;;
38851;SDS011;24605;50.092;9.182;2022-12-16T00:28:06;20.80;;;8.48;;
38851;SDS011;24605;50.092;9.182;2022-12-16T00:30:33;18.95;;;8.63;;
38851;SDS011;24605;50.092;9.182;2022-12-16T00:32:59;23.05;;;8.90;;
38851;SDS011;24605;50.092;9.182;2022-12-16T00:35:27;17.70;;;8.25;;
38851;SDS011;24605;50.092;9.182;2022-12-16T00:37:54;18.60;;;8.20;;
38851;SDS011;24605;50.092;9.182;2022-12-16T00:40:21;19.30;;;8.60;;
38851;SDS011;24605;50.092;9.182;2022-12-16T00:42:47;17.30;;;7.97;;
38851;SDS011;24605;50.092;9.182;2022-12-16T00:45:13;21.65;;;8.90;;
38851;SDS011;24605;50.092;9.182;2022-12-16T00:47:40;21.50;;;9.13;;
38851;SDS011;24605;50.092;9.182;2022-12-16T00:50:07;19.20;;;8.98;;
38851;SDS011;24605;50.092;9.182;2022-12-16T00:52:36;18.20;;;8.02;;
38851;SDS011;24605;50.092;9.182;2022-12-16T00:55:03;19.38;;;8.25;;
38851;SDS011;24605;50.092;9.182;2022-12-16T00:57:30;18.33;;;8.45;;
38851;SDS011;24605;50.092;9.182;2022-12-16T00:59:56;17.50;;;7.75;;
38851;SDS011;24605;50.092;9.182;2022-12-16T01:02:22;19.23;;;8.15;;
38851;SDS011;24605;50.092;9.182;2022-12-16T01:04:49;20.65;;;8.25;;
38851;SDS011;24605;50.092;9.182;2022-12-16T01:07:15;17.85;;;7.75;;
38851;SDS011;24605;50.092;9.182;2022-12-16T01:09:43;20.10;;;7.75;;
38851;SDS011;24605;50.092;9.182;2022-12-16T01:12:10;16.52;;;8.00;;
38851;SDS011;24605;50.092;9.182;2022-12-16T01:14:36;18.67;;;7.50;;
38851;SDS011;24605;50.092;9.182;2022-12-16T01:17:03;17.70;;;7.82;;
38851;SDS011;24605;50.092;9.182;2022-12-16T01:19:29;16.85;;;7.43;;
38851;SDS011;24605;50.092;9.182;2022-12-16T01:21:55;16.80;;;7.03;;
38851;SDS011;24605;50.092;9.182;2022-12-16T01:24:22;17.70;;;7.93;;
38851;SDS011;24605;50.092;9.182;2022-12-16T01:26:50;18.15;;;7.50;;
38851;SDS011;24605;50.092;9.182;2022-12-16T01:29:16;17.17;;;6.50;;
38851;SDS011;24605;50.092;9.182;2022-12-16T01:31:43;16.00;;;6.97;;
38851;SDS011;24605;50.092;9.182;2022-12-16T01:34:09;14.02;;;6.22;;
38851;SDS011;24605;50.092;9.182;2022-12-16T01:36:36;13.85;;;5.78;;
38851;SDS011;24605;50.092;9.182;2022-12-16T01:39:02;13.82;;;5.72;;
38851;SDS011;24605;50.092;9.182;2022-12-16T01:41:29;16.63;;;6.13;;
38851;SDS011;24605;50.092;9.182;2022-12-16T01:44:10;15.88;;;6.60;;
38851;SDS011;24605;50.092;9.182;2022-12-16T01:46:39;15.45;;;6.40;;
38851;SDS011;24605;50.092;9.182;2022-12-16T01:49:07;13.73;;;6.43;;
38851;SDS011;24605;50.092;9.182;2022-12-16T01:51:39;12.30;;;4.55;;
38851;SDS011;24605;50.092;9.182;2022-12-16T01:54:10;10.20;;;4.95;;
38851;SDS011;24605;50.092;9.182;2022-12-16T01:56:40;11.02;;;4.80;;
38851;SDS011;24605;50.092;9.182;2022-12-16T01:59:11;12.48;;;5.25;;
38851;SDS011;24605;50.092;9.182;2022-12-16T02:01:39;11.63;;;5.47;;
38851;SDS011;24605;50.092;9.182;2022-12-16T02:04:06;16.45;;;8.00;;
38851;SDS011;24605;50.092;9.182;2022-12-16T02:06:33;14.90;;;6.57;;
38851;SDS011;24605;50.092;9.182;2022-12-16T02:09:00;16.20;;;7.00;;
38851;SDS011;24605;50.092;9.182;2022-12-16T02:11:40;18.02;;;8.55;;
38851;SDS011;24605;50.092;9.182;2022-12-16T02:14:34;16.42;;;7.55;;
38851;SDS011;24605;50.092;9.182;2022-12-16T02:17:17;14.68;;;7.00;;
38851;SDS011;24605;50.092;9.182;2022-12-16T02:19:57;14.35;;;6.85;;
38851;SDS011;24605;50.092;9.182;2022-12-16T02:22:48;14.95;;;6.50;;
38851;SDS011;24605;50.092;9.182;2022-12-16T02:25:38;13.95;;;6.28;;
38851;SDS011;24605;50.092;9.182;2022-12-16T02:28:22;14.13;;;5.97;;
38851;SDS011;24605;50.092;9.182;2022-12-16T02:31:09;11.95;;;5.53;;
38851;SDS011;24605;50.092;9.182;2022-12-16T02:33:49;13.38;;;5.80;;
38851;SDS011;24605;50.092;9.182;2022-12-16T02:36:30;13.43;;;6.03;;
38851;SDS011;24605;50.092;9.182;2022-12-16T02:39:08;12.88;;;6.15;;
38851;SDS011;24605;50.092;9.182;2022-12-16T02:41:41;15.00;;;5.93;;
38851;SDS011;24605;50.092;9.182;2022-12-16T02:44:09;13.27;;;5.85;;
38851;SDS011;24605;50.092;9.182;2022-12-16T02:46:39;13.63;;;6.10;;
38851;SDS011;24605;50.092;9.182;2022-12-16T02:49:08;14.57;;;6.40;;
38851;SDS011;24605;50.092;9.182;2022-12-16T02:51:55;13.63;;;6.88;;
38851;SDS011;24605;50.092;9.182;2022-12-16T02:54:23;15.82;;;7.05;;
38851;SDS011;24605;50.092;9.182;2022-12-16T02:56:53;13.65;;;6.38;;
38851;SDS011;24605;50.092;9.182;2022-12-16T02:59:29;17.05;;;7.10;;
38851;SDS011;24605;50.092;9.182;2022-12-16T03:02:05;15.85;;;7.15;;
38851;SDS011;24605;50.092;9.182;2022-12-16T03:04:39;16.25;;;6.20;;
38851;SDS011;24605;50.092;9.182;2022-12-16T03:07:12;13.15;;;6.10;;
38851;SDS011;24605;50.092;9.182;2022-12-16T03:09:40;13.20;;;5.70;;
38851;SDS011;24605;50.092;9.182;2022-12-16T03:12:09;14.10;;;5.53;;
38851;SDS011;24605;50.092;9.182;2022-12-16T03:14:40;13.98;;;6.13;;
38851;SDS011;24605;50.092;9.182;2022-12-16T03:17:10;13.45;;;6.63;;
38851;SDS011;24605;50.092;9.182;2022-12-16T03:19:39;18.65;;;7.40;;
38851;SDS011;24605;50.092;9.182;2022-12-16T03:22:10;18.77;;;6.50;;
38851;SDS011;24605;50.092;9.182;2022-12-16T03:24:39;19.13;;;7.32;;
38851;SDS011;24605;50.092;9.182;2022-12-16T03:27:07;17.67;;;6.97;;
38851;SDS011;24605;50.092;9.182;2022-12-16T03:29:40;16.58;;;6.70;;
38851;SDS011;24605;50.092;9.182;2022-12-16T03:32:13;15.88;;;7.05;;
38851;SDS011;24605;50.092;9.182;2022-12-16T03:34:49;20.75;;;7.68;;
38851;SDS011;24605;50.092;9.182;2022-12-16T03:37:18;19.25;;;6.93;;
38851;SDS011;24605;50.092;9.182;2022-12-16T03:39:48;15.10;;;7.07;;
38851;SDS011;24605;50.092;9.182;2022-12-16T03:42:18;17.30;;;7.45;;
38851;SDS011;24605;50.092;9.182;2022-12-16T03:44:45;16.98;;;7.95;;
38851;SDS011;24605;50.092;9.182;2022-12-16T03:47:14;19.17;;;7.55;;
38851;SDS011;24605;50.092;9.182;2022-12-16T03:49:41;18.00;;;7.32;;
38851;SDS011;24605;50.092;9.182;2022-12-16T03:52:08;18.20;;;7.80;;
38851;SDS011;24605;50.092;9.182;2022-12-16T03:54:34;17.55;;;7.38;;
38851;SDS011;24605;50.092;9.182;2022-12-16T03:57:01;20.35;;;8.07;;
38851;SDS011;24605;50.092;9.182;2022-12-16T03:59:28;20.23;;;8.35;;
38851;SDS011;24605;50.092;9.182;2022-12-16T04:01:54;18.30;;;8.02;;
38851;SDS011;24605;50.092;9.182;2022-12-16T04:04:22;20.35;;;7.90;;
38851;SDS011;24605;50.092;9.182;2022-12-16T04:06:49;19.67;;;8.32;;
38851;SDS011;24605;50.092;9.182;2022-12-16T04:09:35;19.38;;;7.93;;
38851;SDS011;24605;50.092;9.182;2022-12-16T04:12:02;18.85;;;8.48;;
38851;SDS011;24605;50.092;9.182;2022-12-16T04:14:47;15.75;;;7.40;;
38851;SDS011;24605;50.092;9.182;2022-12-16T04:17:31;19.05;;;8.07;;
38851;SDS011;24605;50.092;9.182;2022-12-16T04:20:17;18.63;;;7.90;;
38851;SDS011;24605;50.092;9.182;2022-12-16T04:23:02;20.98;;;8.05;;
38851;SDS011;24605;50.092;9.182;2022-12-16T04:25:48;28.10;;;8.60;;
38851;SDS011;24605;50.092;9.182;2022-12-16T04:28:15;17.13;;;7.95;;
38851;SDS011;24605;50.092;9.182;2022-12-16T04:30:41;18.35;;;7.57;;
38851;SDS011;24605;50.092;9.182;2022-12-16T04:33:08;18.83;;;7.65;;
38851;SDS011;24605;50.092;9.182;2022-12-16T04:35:59;22.08;;;8.30;;
38851;SDS011;24605;50.092;9.182;2022-12-16T04:38:43;18.75;;;7.70;;
38851;SDS011;24605;50.092;9.182;2022-12-16T04:41:27;22.42;;;8.30;;
38851;SDS011;24605;50.092;9.182;2022-12-16T04:44:17;16.75;;;8.07;;
38851;SDS011;24605;50.092;9.182;2022-12-16T04:47:01;17.23;;;7.65;;
38851;SDS011;24605;50.092;9.182;2022-12-16T04:49:45;15.95;;;6.93;;
38851;SDS011;24605;50.092;9.182;2022-12-16T04:52:30;19.30;;;7.15;;
38851;SDS011;24605;50.092;9.182;2022-12-16T04:55:15;17.52;;;7.15;;
38851;SDS011;24605;50.092;9.182;2022-12-16T04:57:59;15.93;;;6.80;;
38851;SDS011;24605;50.092;9.182;2022-12-16T05:00:45;14.32;;;6.90;;
38851;SDS011;24605;50.092;9.182;2022-12-16T05:03:30;15.77;;;6.22;;
38851;SDS011;24605;50.092;9.182;2022-12-16T05:06:15;12.65;;;5.65;;
38851;SDS011;24605;50.092;9.182;2022-12-16T05:09:01;15.95;;;6.75;;
38851;SDS011;24605;50.092;9.182;2022-12-16T05:11:46;11.80;;;5.55;;
38851;SDS011;24605;50.092;9.182;2022-12-16T05:14:30;13.88;;;5.68;;
38851;SDS011;24605;50.092;9.182;2022-12-16T05:17:14;11.77;;;6.00;;
38851;SDS011;24605;50.092;9.182;2022-12-16T05:19:58;13.88;;;6.00;;
38851;SDS011;24605;50.092;9.182;2022-12-16T05:22:43;34.10;;;15.40;;
38851;SDS011;24605;50.092;9.182;2022-12-16T05:25:28;20.60;;;8.07;;
38851;SDS011;24605;50.092;9.182;2022-12-16T05:28:13;17.27;;;8.50;;
38851;SDS011;24605;50.092;9.182;2022-12-16T05:30:57;18.08;;;8.82;;
38851;SDS011;24605;50.092;9.182;2022-12-16T05:33:41;17.77;;;8.23;;
38851;SDS011;24605;50.092;9.182;2022-12-16T05:36:25;22.63;;;9.40;;
38851;SDS011;24605;50.092;9.182;2022-12-16T05:39:09;16.92;;;8.18;;
38851;SDS011;24605;50.092;9.182;2022-12-16T05:41:55;23.57;;;8.80;;
38851;SDS011;24605;50.092;9.182;2022-12-16T05:44:39;19.45;;;7.90;;
38851;SDS011;24605;50.092;9.182;2022-12-16T05:47:23;21.30;;;8.48;;
38851;SDS011;24605;50.092;9.182;2022-12-16T05:52:53;19.58;;;8.70;;
38851;SDS011;24605;50.092;9.182;2022-12-16T05:55:38;20.92;;;7.22;;
38851;SDS011;24605;50.092;9.182;2022-12-16T05:58:32;17.52;;;6.18;;
38851;SDS011;24605;50.092;9.182;2022-12-16T06:01:16;16.05;;;6.45;;
38851;SDS011;24605;50.092;9.182;2022-12-16T06:04:00;14.93;;;5.95;;
38851;SDS011;24605;50.092;9.182;2022-12-16T06:06:44;14.63;;;6.57;;
38851;SDS011;24605;50.092;9.182;2022-12-16T06:09:29;17.38;;;7.18;;
38851;SDS011;24605;50.092;9.182;2022-12-16T06:12:13;17.23;;;7.47;;
38851;SDS011;24605;50.092;9.182;2022-12-16T06:14:58;20.92;;;8.02;;
38851;SDS011;24605;50.092;9.182;2022-12-16T06:17:45;15.80;;;7.03;;
38851;SDS011;24605;50.092;9.182;2022-12-16T06:20:31;15.45;;;7.15;;
38851;SDS011;24605;50.092;9.182;2022-12-16T06:23:15;17.25;;;7.45;;
38851;SDS011;24605;50.092;9.182;2022-12-16T06:26:00;16.50;;;6.65;;
38851;SDS011;24605;50.092;9.182;2022-12-16T06:28:44;18.30;;;7.53;;
38851;SDS011;24605;50.092;9.182;2022-12-16T06:31:44;18.75;;;7.97;;
38851;SDS011;24605;50.092;9.182;2022-12-16T06:34:27;18.38;;;7.03;;
38851;SDS011;24605;50.092;9.182;2022-12-16T06:37:14;15.07;;;6.85;;
38851;SDS011;24605;50.092;9.182;2022-12-16T06:39:58;16.25;;;7.85;;
38851;SDS011;24605;50.092;9.182;2022-12-16T06:42:42;15.82;;;6.90;;
38851;SDS011;24605;50.092;9.182;2022-12-16T06:45:26;28.33;;;8.02;;
38851;SDS011;24605;50.092;9.182;2022-12-16T06:48:26;33.65;;;13.10;;
38851;SDS011;24605;50.092;9.182;2022-12-16T06:51:10;19.60;;;10.32;;
38851;SDS011;24605;50.092;9.182;2022-12-16T06:53:54;28.52;;;14.52;;
38851;SDS011;24605;50.092;9.182;2022-12-16T06:56:38;18.70;;;8.47;;
38851;SDS011;24605;50.092;9.182;2022-12-16T06:59:22;55.92;;;20.48;;
38851;SDS011;24605;50.092;9.182;2022-12-16T07:02:07;23.73;;;10.52;;
38851;SDS011;24605;50.092;9.182;2022-12-16T07:04:50;18.67;;;8.82;;
38851;SDS011;24605;50.092;9.182;2022-12-16T07:07:34;33.10;;;12.90;;
38851;SDS011;24605;50.092;9.182;2022-12-16T07:10:18;25.75;;;9.73;;
38851;SDS011;24605;50.092;9.182;2022-12-16T07:13:02;17.73;;;7.65;;
38851;SDS011;24605;50.092;9.182;2022-12-16T07:15:46;18.60;;;8.45;;
38851;SDS011;24605;50.092;9.182;2022-12-16T07:18:30;18.52;;;7.82;;
38851;SDS011;24605;50.092;9.182;2022-12-16T07:21:17;21.30;;;9.87;;
38851;SDS011;24605;50.092;9.182;2022-12-16T07:24:01;25.75;;;9.77;;
38851;SDS011;24605;50.092;9.182;2022-12-16T07:26:41;27.58;;;11.55;;
38851;SDS011;24605;50.092;9.182;2022-12-16T07:29:26;45.92;;;18.70;;
38851;SDS011;24605;50.092;9.182;2022-12-16T07:32:10;21.93;;;10.37;;
38851;SDS011;24605;50.092;9.182;2022-12-16T07:34:54;18.83;;;9.03;;
38851;SDS011;24605;50.092;9.182;2022-12-16T07:37:39;21.23;;;9.10;;
38851;SDS011;24605;50.092;9.182;2022-12-16T07:40:23;17.48;;;8.48;;
38851;SDS011;24605;50.092;9.182;2022-12-16T07:43:07;17.87;;;8.10;;
38851;SDS011;24605;50.092;9.182;2022-12-16T07:45:51;19.25;;;8.55;;
38851;SDS011;24605;50.092;9.182;2022-12-16T07:48:47;41.50;;;15.68;;
38851;SDS011;24605;50.092;9.182;2022-12-16T07:51:32;23.73;;;10.80;;
38851;SDS011;24605;50.092;9.182;2022-12-16T07:54:17;18.27;;;8.93;;
38851;SDS011;24605;50.092;9.182;2022-12-16T07:57:01;23.20;;;9.45;;
38851;SDS011;24605;50.092;9.182;2022-12-16T07:59:45;22.77;;;10.23;;
38851;SDS011;24605;50.092;9.182;2022-12-16T08:02:29;26.48;;;11.38;;
38851;SDS011;24605;50.092;9.182;2022-12-16T08:05:13;26.20;;;10.13;;
38851;SDS011;24605;50.092;9.182;2022-12-16T08:07:58;19.55;;;9.48;;
38851;SDS011;24605;50.092;9.182;2022-12-16T08:10:43;19.83;;;8.63;;
38851;SDS011;24605;50.092;9.182;2022-12-16T08:13:27;21.38;;;10.00;;
38851;SDS011;24605;50.092;9.182;2022-12-16T08:16:11;21.33;;;9.93;;
38851;SDS011;24605;50.092;9.182;2022-12-16T08:18:55;19.70;;;9.10;;
38851;SDS011;24605;50.092;9.182;2022-12-16T08:21:40;22.80;;;10.55;;
38851;SDS011;24605;50.092;9.182;2022-12-16T08:24:23;23.85;;;10.63;;
38851;SDS011;24605;50.092;9.182;2022-12-16T08:27:09;23.88;;;11.05;;
38851;SDS011;24605;50.092;9.182;2022-12-16T08:29:53;23.33;;;10.10;;
38851;SDS011;24605;50.092;9.182;2022-12-16T08:32:37;23.85;;;10.40;;
38851;SDS011;24605;50.092;9.182;2022-12-16T08:35:21;22.63;;;10.25;;
38851;SDS011;24605;50.092;9.182;2022-12-16T08:38:05;20.20;;;9.43;;
38851;SDS011;24605;50.092;9.182;2022-12-16T08:40:49;17.97;;;9.67;;
38851;SDS011;24605;50.092;9.182;2022-12-16T08:43:34;19.52;;;8.95;;
38851;SDS011;24605;50.092;9.182;2022-12-16T08:46:19;20.65;;;8.93;;
38851;SDS011;24605;50.092;9.182;2022-12-16T08:49:03;19.63;;;8.32;;
38851;SDS011;24605;50.092;9.182;2022-12-16T08:51:46;21.25;;;9.82;;
38851;SDS011;24605;50.092;9.182;2022-12-16T08:54:30;21.55;;;9.32;;
38851;SDS011;24605;50.092;9.182;2022-12-16T08:57:15;23.30;;;9.02;;
38851;SDS011;24605;50.092;9.182;2022-12-16T09:00:00;21.23;;;8.70;;
38851;SDS011;24605;50.092;9.182;2022-12-16T09:02:44;20.90;;;8.70;;
38851;SDS011;24605;50.092;9.182;2022-12-16T09:05:29;21.90;;;9.30;;
38851;SDS011;24605;50.092;9.182;2022-12-16T09:08:13;21.15;;;8.93;;
38851;SDS011;24605;50.092;9.182;2022-12-16T09:10:58;20.97;;;9.30;;
38851;SDS011;24605;50.092;9.182;2022-12-16T09:13:43;21.60;;;9.73;;
38851;SDS011;24605;50.092;9.182;2022-12-16T09:16:28;20.92;;;9.65;;
38851;SDS011;24605;50.092;9.182;2022-12-16T09:19:12;22.33;;;9.57;;
38851;SDS011;24605;50.092;9.182;2022-12-16T09:21:56;23.95;;;10.55;;
38851;SDS011;24605;50.092;9.182;2022-12-16T09:24:40;23.25;;;9.70;;
38851;SDS011;24605;50.092;9.182;2022-12-16T09:27:24;23.63;;;10.05;;
38851;SDS011;24605;50.092;9.182;2022-12-16T09:30:08;24.83;;;10.30;;
38851;SDS011;24605;50.092;9.182;2022-12-16T09:32:54;20.25;;;9.85;;
38851;SDS011;24605;50.092;9.182;2022-12-16T09:35:38;26.42;;;11.45;;
38851;SDS011;24605;50.092;9.182;2022-12-16T09:38:21;21.20;;;9.75;;
38851;SDS011;24605;50.092;9.182;2022-12-16T09:41:18;24.42;;;10.30;;
38851;SDS011;24605;50.092;9.182;2022-12-16T09:44:10;25.08;;;10.27;;
38851;SDS011;24605;50.092;9.182;2022-12-16T09:47:04;23.10;;;9.65;;
38851;SDS011;24605;50.092;9.182;2022-12-16T09:50:02;19.27;;;8.88;;
38851;SDS011;24605;50.092;9.182;2022-12-16T09:52:44;19.38;;;8.88;;
38851;SDS011;24605;50.092;9.182;2022-12-16T09:55:32;23.70;;;10.23;;
38851;SDS011;24605;50.092;9.182;2022-12-16T09:58:21;18.90;;;9.48;;
38851;SDS011;24605;50.092;9.182;2022-12-16T10:01:09;19.02;;;9.18;;
38851;SDS011;24605;50.092;9.182;2022-12-16T10:03:55;19.42;;;9.50;;
38851;SDS011;24605;50.092;9.182;2022-12-16T10:06:41;20.70;;;9.10;;
38851;SDS011;24605;50.092;9.182;2022-12-16T10:09:29;20.42;;;9.65;;
38851;SDS011;24605;50.092;9.182;2022-12-16T10:12:21;21.15;;;9.35;;
38851;SDS011;24605;50.092;9.182;2022-12-16T10:15:23;16.67;;;8.02;;
38851;SDS011;24605;50.092;9.182;2022-12-16T10:18:16;18.20;;;8.50;;
38851;SDS011;24605;50.092;9.182;2022-12-16T10:21:12;16.40;;;8.05;;
38851;SDS011;24605;50.092;9.182;2022-12-16T10:24:04;17.77;;;8.82;;
38851;SDS011;24605;50.092;9.182;2022-12-16T10:27:02;16.45;;;8.05;;
38851;SDS011;24605;50.092;9.182;2022-12-16T10:29:53;19.02;;;8.00;;
38851;SDS011;24605;50.092;9.182;2022-12-16T10:32:39;16.20;;;8.15;;
38851;SDS011;24605;50.092;9.182;2022-12-16T10:35:27;15.20;;;7.60;;
38851;SDS011;24605;50.092;9.182;2022-12-16T10:38:17;16.80;;;8.45;;
38851;SDS011;24605;50.092;9.182;2022-12-16T10:41:05;16.23;;;7.97;;
38851;SDS011;24605;50.092;9.182;2022-12-16T10:43:49;17.48;;;8.18;;
38851;SDS011;24605;50.092;9.182;2022-12-16T10:46:36;15.15;;;7.53;;
38851;SDS011;24605;50.092;9.182;2022-12-16T10:49:20;16.63;;;7.88;;
38851;SDS011;24605;50.092;9.182;2022-12-16T10:52:04;15.63;;;8.45;;
38851;SDS011;24605;50.092;9.182;2022-12-16T10:54:50;16.42;;;7.40;;
38851;SDS011;24605;50.092;9.182;2022-12-16T10:57:47;13.43;;;6.90;;
38851;SDS011;24605;50.092;9.182;2022-12-16T11:00:39;16.95;;;7.32;;
38851;SDS011;24605;50.092;9.182;2022-12-16T11:03:27;16.38;;;7.20;;
38851;SDS011;24605;50.092;9.182;2022-12-16T11:06:14;15.85;;;6.93;;
38851;SDS011;24605;50.092;9.182;2022-12-16T11:09:16;13.55;;;7.10;;
38851;SDS011;24605;50.092;9.182;2022-12-16T11:12:21;14.15;;;7.45;;
38851;SDS011;24605;50.092;9.182;2022-12-16T11:15:19;19.52;;;8.40;;
38851;SDS011;24605;50.092;9.182;2022-12-16T11:18:09;19.08;;;7.85;;
38851;SDS011;24605;50.092;9.182;2022-12-16T11:21:06;15.85;;;7.25;;
38851;SDS011;24605;50.092;9.182;2022-12-16T11:24:11;20.33;;;9.20;;
38851;SDS011;24605;50.092;9.182;2022-12-16T11:26:57;13.95;;;7.25;;
38851;SDS011;24605;50.092;9.182;2022-12-16T11:29:53;14.25;;;6.75;;
38851;SDS011;24605;50.092;9.182;2022-12-16T11:32:40;15.40;;;6.93;;
38851;SDS011;24605;50.092;9.182;2022-12-16T11:35:29;16.75;;;7.38;;
38851;SDS011;24605;50.092;9.182;2022-12-16T11:38:17;17.92;;;7.63;;
38851;SDS011;24605;50.092;9.182;2022-12-16T11:41:21;16.92;;;7.47;;
38851;SDS011;24605;50.092;9.182;2022-12-16T11:44:11;16.27;;;7.72;;
38851;SDS011;24605;50.092;9.182;2022-12-16T11:47:00;14.57;;;7.13;;
38851;SDS011;24605;50.092;9.182;2022-12-16T11:49:45;17.08;;;7.38;;
38851;SDS011;24605;50.092;9.182;2022-12-16T11:52:29;13.55;;;6.65;;
38851;SDS011;24605;50.092;9.182;2022-12-16T11:55:15;15.13;;;7.47;;
38851;SDS011;24605;50.092;9.182;2022-12-16T11:58:05;14.45;;;6.68;;
38851;SDS011;24605;50.092;9.182;2022-12-16T12:01:02;15.85;;;7.57;;
38851;SDS011;24605;50.092;9.182;2022-12-16T12:03:53;15.20;;;7.30;;
38851;SDS011;24605;50.092;9.182;2022-12-16T12:06:44;14.40;;;6.50;;
38851;SDS011;24605;50.092;9.182;2022-12-16T12:09:46;16.13;;;7.30;;
38851;SDS011;24605;50.092;9.182;2022-12-16T12:12:37;16.77;;;7.40;;
38851;SDS011;24605;50.092;9.182;2022-12-16T12:15:27;17.55;;;7.63;;
38851;SDS011;24605;50.092;9.182;2022-12-16T12:18:17;12.77;;;6.30;;
38851;SDS011;24605;50.092;9.182;2022-12-16T12:21:08;13.93;;;6.72;;
38851;SDS011;24605;50.092;9.182;2022-12-16T12:24:03;13.45;;;7.07;;
38851;SDS011;24605;50.092;9.182;2022-12-16T12:27:00;12.85;;;6.35;;
38851;SDS011;24605;50.092;9.182;2022-12-16T12:29:51;12.93;;;6.43;;
38851;SDS011;24605;50.092;9.182;2022-12-16T12:32:42;14.75;;;6.70;;
38851;SDS011;24605;50.092;9.182;2022-12-16T12:35:40;12.90;;;6.70;;
38851;SDS011;24605;50.092;9.182;2022-12-16T12:38:36;15.25;;;6.95;;
38851;SDS011;24605;50.092;9.182;2022-12-16T12:41:35;12.82;;;6.80;;
38851;SDS011;24605;50.092;9.182;2022-12-16T12:44:34;14.70;;;6.90;;
38851;SDS011;24605;50.092;9.182;2022-12-16T12:47:26;13.93;;;6.35;;
38851;SDS011;24605;50.092;9.182;2022-12-16T12:50:15;13.63;;;6.53;;
38851;SDS011;24605;50.092;9.182;2022-12-16T12:53:09;15.05;;;6.38;;
38851;SDS011;24605;50.092;9.182;2022-12-16T12:56:05;12.45;;;5.65;;
38851;SDS011;24605;50.092;9.182;2022-12-16T12:58:59;13.88;;;6.97;;
38851;SDS011;24605;50.092;9.182;2022-12-16T13:01:47;15.25;;;6.63;;
38851;SDS011;24605;50.092;9.182;2022-12-16T13:04:34;15.38;;;6.15;;
38851;SDS011;24605;50.092;9.182;2022-12-16T13:07:18;13.30;;;6.82;;
38851;SDS011;24605;50.092;9.182;2022-12-16T13:10:14;12.63;;;6.25;;
38851;SDS011;24605;50.092;9.182;2022-12-16T13:19:54;14.48;;;7.13;;
38851;SDS011;24605;50.092;9.182;2022-12-16T13:22:42;13.88;;;6.53;;
38851;SDS011;24605;50.092;9.182;2022-12-16T13:25:31;12.30;;;5.78;;
38851;SDS011;24605;50.092;9.182;2022-12-16T13:28:21;13.73;;;6.88;;
38851;SDS011;24605;50.092;9.182;2022-12-16T13:31:08;12.98;;;6.35;;
38851;SDS011;24605;50.092;9.182;2022-12-16T13:36:39;12.13;;;6.20;;
38851;SDS011;24605;50.092;9.182;2022-12-16T13:39:27;16.67;;;7.20;;
38851;SDS011;24605;50.092;9.182;2022-12-16T13:45:33;15.27;;;6.10;;
38851;SDS011;24605;50.092;9.182;2022-12-16T13:54:51;12.02;;;5.60;;
38851;SDS011;24605;50.092;9.182;2022-12-16T13:57:42;14.20;;;6.60;;
38851;SDS011;24605;50.092;9.182;2022-12-16T14:00:27;13.27;;;6.60;;
38851;SDS011;24605;50.092;9.182;2022-12-16T14:03:13;13.98;;;6.07;;
38851;SDS011;24605;50.092;9.182;2022-12-16T14:06:03;14.52;;;6.35;;
38851;SDS011;24605;50.092;9.182;2022-12-16T14:08:53;13.27;;;6.50;;
38851;SDS011;24605;50.092;9.182;2022-12-16T14:11:41;13.50;;;6.20;;
38851;SDS011;24605;50.092;9.182;2022-12-16T14:14:34;15.25;;;6.90;;
38851;SDS011;24605;50.092;9.182;2022-12-16T14:17:23;12.50;;;6.47;;
38851;SDS011;24605;50.092;9.182;2022-12-16T14:20:27;14.77;;;6.22;;
38851;SDS011;24605;50.092;9.182;2022-12-16T14:23:20;13.30;;;6.38;;
38851;SDS011;24605;50.092;9.182;2022-12-16T14:26:12;14.05;;;6.65;;
38851;SDS011;24605;50.092;9.182;2022-12-16T14:28:58;14.65;;;7.00;;
38851;SDS011;24605;50.092;9.182;2022-12-16T14:31:44;11.23;;;6.28;;
38851;SDS011;24605;50.092;9.182;2022-12-16T14:34:30;13.55;;;6.97;;
38851;SDS011;24605;50.092;9.182;2022-12-16T14:37:16;13.85;;;6.75;;
38851;SDS011;24605;50.092;9.182;2022-12-16T14:40:03;15.43;;;6.43;;
38851;SDS011;24605;50.092;9.182;2022-12-16T14:42:48;15.18;;;7.47;;
38851;SDS011;24605;50.092;9.182;2022-12-16T14:45:36;13.57;;;7.10;;
38851;SDS011;24605;50.092;9.182;2022-12-16T14:48:23;16.42;;;7.32;;
38851;SDS011;24605;50.092;9.182;2022-12-16T14:51:15;13.90;;;7.28;;
38851;SDS011;24605;50.092;9.182;2022-12-16T14:54:10;14.57;;;6.88;;
38851;SDS011;24605;50.092;9.182;2022-12-16T14:57:01;14.65;;;6.47;;
38851;SDS011;24605;50.092;9.182;2022-12-16T14:59:45;15.73;;;7.40;;
38851;SDS011;24605;50.092;9.182;2022-12-16T15:02:32;13.75;;;6.32;;
38851;SDS011;24605;50.092;9.182;2022-12-16T15:05:20;14.57;;;6.68;;
38851;SDS011;24605;50.092;9.182;2022-12-16T15:08:08;15.65;;;6.32;;
38851;SDS011;24605;50.092;9.182;2022-12-16T15:10:54;13.23;;;6.45;;
38851;SDS011;24605;50.092;9.182;2022-12-16T15:13:39;15.45;;;7.10;;
38851;SDS011;24605;50.092;9.182;2022-12-16T15:16:23;14.05;;;6.68;;
38851;SDS011;24605;50.092;9.182;2022-12-16T15:19:16;13.52;;;6.22;;
38851;SDS011;24605;50.092;9.182;2022-12-16T15:22:03;14.80;;;6.45;;
38851;SDS011;24605;50.092;9.182;2022-12-16T15:24:47;13.30;;;6.38;;
38851;SDS011;24605;50.092;9.182;2022-12-16T15:27:32;14.00;;;6.55;;
38851;SDS011;24605;50.092;9.182;2022-12-16T15:30:31;14.45;;;6.93;;
38851;SDS011;24605;50.092;9.182;2022-12-16T15:33:18;12.63;;;6.18;;
38851;SDS011;24605;50.092;9.182;2022-12-16T15:36:10;12.00;;;6.32;;
38851;SDS011;24605;50.092;9.182;2022-12-16T15:39:08;14.90;;;6.30;;
38851;SDS011;24605;50.092;9.182;2022-12-16T15:41:53;17.77;;;7.20;;
38851;SDS011;24605;50.092;9.182;2022-12-16T15:44:37;15.05;;;7.50;;
38851;SDS011;24605;50.092;9.182;2022-12-16T15:47:31;19.05;;;9.88;;
38851;SDS011;24605;50.092;9.182;2022-12-16T15:50:18;19.10;;;9.23;;
38851;SDS011;24605;50.092;9.182;2022-12-16T15:53:15;18.33;;;8.77;;
38851;SDS011;24605;50.092;9.182;2022-12-16T15:56:14;13.32;;;7.05;;
38851;SDS011;24605;50.092;9.182;2022-12-16T15:59:19;15.68;;;7.25;;
38851;SDS011;24605;50.092;9.182;2022-12-16T16:02:09;19.85;;;8.23;;
38851;SDS011;24605;50.092;9.182;2022-12-16T16:04:59;16.23;;;7.90;;
38851;SDS011;24605;50.092;9.182;2022-12-16T16:07:44;18.10;;;10.40;;
38851;SDS011;24605;50.092;9.182;2022-12-16T16:10:29;17.13;;;8.32;;
38851;SDS011;24605;50.092;9.182;2022-12-16T16:13:13;17.27;;;7.47;;
38851;SDS011;24605;50.092;9.182;2022-12-16T16:15:57;14.95;;;7.28;;
38851;SDS011;24605;50.092;9.182;2022-12-16T16:18:42;18.13;;;8.10;;
38851;SDS011;24605;50.092;9.182;2022-12-16T16:21:26;16.55;;;7.70;;
38851;SDS011;24605;50.092;9.182;2022-12-16T16:24:10;18.38;;;9.05;;
38851;SDS011;24605;50.092;9.182;2022-12-16T16:26:57;21.90;;;9.88;;